Station: Weipa  

  Atmospheric Gas Attenuation - ITU Rec 676-11   ----------------- dB/100km -----------------
Date Time Temp RH % AH g/m3 Dew Point Wind Direction Speed kph Gust kph Barometer mB Rainfall Since 9am 24GHz 47GHz 76GHz 122GHz 134GHz 241GHz
08/05 12:30 32.6 48 16.73 20.2 26 33 1009.8 0 35.5 32.7 60.4 159.6 172.3 599.0
08/05 12:20 32.5 49 16.99 20.4 28 33 1010 0 36.0 33.2 61.5 162.6 176.0 611.7
08/05 12:10 32.4 48 16.56 20.3 24 28 1010.2 0 35.1 32.5 59.9 158.3 170.6 593.0
08/05 12:00 31.4 52 17.01 20.4 22 32 1010.4 0 36.2 33.6 62.5 165.2 178.8 621.5
08/05 11:50 31.9 52 17.47 21.1 26 30 1010.7 0 37.1 34.2 64.0 169.2 183.8 639.1
08/05 11:40 31.6 54 17.85 21.4 22 26 1010.9 0 37.9 35.0 65.8 174.0 189.7 659.6
08/05 11:30 31.9 53 17.8 21.4 20 30 1011 0 37.8 34.8 65.3 172.8 188.3 654.7
08/05 11:20 31.1 55 17.7 21 24 30 1011.2 0 37.6 34.9 65.6 173.5 188.9 656.8
08/05 11:10 30.6 54 16.92 20.5 22 30 1011.3 0 36.0 33.8 62.8 166.0 179.6 624.1
08/05 11:00 30.3 59 18.19 21.4 20 28 1011.3 0 38.7 36.1 68.4 180.9 197.8 687.4
08/05 10:50 30.2 59 18.09 21.3 22 26 1011.6 0 38.5 36.0 68.1 180.0 196.7 683.6
08/05 10:40 30 60 18.2 21.4 19 24 1011.7 0 38.8 36.3 68.7 181.8 198.7 690.8
08/05 10:30 29.5 61 18.01 21.4 20 24 1011.8 0 38.4 36.2 68.3 180.8 197.4 686.0
08/05 10:20 29.5 64 18.89 22 20 24 1012 0 40.3 37.7 72.2 191.0 209.9 729.8
08/05 10:10 29.2 66 19.17 22.4 20 24 1012.1 0 40.9 38.3 73.7 195.1 214.9 746.8
08/05 10:00 28.4 66 18.35 21.4 22 32 1012.1 0 39.2 37.2 70.8 187.4 205.2 713.0
08/05 09:50 28.3 68 18.8 21.8 19 24 1012.2 0 40.2 38.1 72.9 193.0 212.0 736.8
08/05 09:40 28.2 67 18.42 21.5 22 24 1012.2 0 39.4 37.5 71.3 188.7 206.7 718.4
08/05 09:30 28.2 69 18.97 22 20 32 1012.1 0 40.6 38.4 73.8 195.3 214.8 746.4
08/05 09:20 27.7 70 18.73 21.7 20 24 1012.1 0 40.1 38.2 73.2 193.6 212.7 738.9
08/05 09:10 27.2 73 19 21.9 17 19 1012.1 0 40.7 39.0 74.9 198.2 218.1 757.8
08/05 09:00 26.9 72 18.43 21.6 20 28 1012.1 0 39.6 38.0 72.6 192.0 210.5 731.2
08/05 08:50 26.5 77 19.28 22.1 17 20 1012.1 0 41.4 39.8 76.9 203.5 224.4 779.6
08/05 08:40 26.1 78 19.1 22 17 20 1012.1 0 41.1 39.7 76.5 202.3 222.8 774.1
08/05 08:30 25.7 79 18.91 21.8 15 20 1011.9 0 40.7 39.5 76.0 201.0 221.1 768.0
08/05 08:20 25.1 82 18.98 21.8 17 19 1012 0 40.9 39.9 76.9 203.5 224.0 778.0
08/05 08:10 24.8 85 19.35 22.1 11 13 1012.1 0 41.7 40.8 79.0 209.0 230.6 801.1
08/05 08:00 24.2 87 19.14 21.9 9 13 1012.1 0 41.4 40.6 78.6 208.0 229.2 796.1
08/05 07:50 23.9 90 19.47 22.2 9 9 1012.1 0 42.1 41.4 80.5 213.1 235.4 817.4
08/05 07:40 23.5 91 19.24 21.9 7 9 1012.1 0 41.6 41.2 79.8 211.2 233.0 809.0
08/05 07:30 22.9 93 19 21.7 4 9 1012 0 41.2 41.0 79.3 209.8 231.0 802.1
08/05 07:20 22.5 94 18.77 21.5 7 7 1011.9 0 40.7 40.8 78.6 207.9 228.6 793.6
08/05 07:10 22.3 94 18.56 21.3 6 6 1011.7 0 40.3 40.4 77.8 205.7 225.8 784.0
08/05 07:00 22 95 18.44 21.2 6 7 1011.6 0 40.1 40.3 77.5 204.9 224.8 780.5
08/05 06:50 21.8 94 18.03 20.8 6 6 1011.5 0 39.2 39.6 75.7 200.2 218.9 759.9
08/05 06:40 21.9 94 18.14 20.9 6 7 1011.5 0 39.5 39.8 76.1 201.3 220.4 764.9
08/05 06:30 21.9 94 18.14 20.9 6 7 1011.5 0 39.5 39.8 76.1 201.3 220.4 764.9
08/05 06:20 21.9 94 18.14 20.9 6 6 1011.5 0 39.5 39.8 76.1 201.3 220.4 764.9
08/05 06:10 22 94 18.24 21 6 7 1011.4 0 39.7 39.9 76.5 202.3 221.6 769.3
08/05 06:00 21.9 94 18.14 20.9 6 7 1011.3 0 39.5 39.8 76.1 201.3 220.3 764.8
08/05 05:50 21.9 94 18.14 20.9 6 7 1011.3 0 39.5 39.8 76.1 201.3 220.3 764.8
08/05 05:40 21.9 94 18.14 20.9 0 0 1011.3 0 39.5 39.8 76.1 201.3 220.3 764.8
08/05 05:30 21.9 93 17.94 20.7 0 0 1011.2 0 39.0 39.4 75.1 198.7 217.2 753.8
08/05 05:20 22 93 18.05 20.8 0 0 1011.1 0 39.3 39.6 75.6 199.8 218.6 758.8
08/05 05:10 22.2 93 18.26 21 4 6 1011.1 0 39.7 39.9 76.4 202.0 221.3 768.2
08/05 05:00 22.3 92 18.16 20.9 2 7 1011.1 0 39.5 39.6 75.8 200.4 219.4 761.7
08/05 04:50 22.3 92 18.16 20.9 6 7 1011 0 39.5 39.6 75.8 200.4 219.4 761.7
08/05 04:40 22.4 92 18.27 21 6 7 1011 0 39.7 39.8 76.2 201.6 220.8 766.7
08/05 04:30 22.4 92 18.27 21 7 9 1010.9 0 39.7 39.8 76.2 201.5 220.8 766.6
08/05 04:20 22.4 92 18.27 21 6 7 1010.9 0 39.7 39.8 76.2 201.5 220.8 766.6
08/05 04:10 22.6 91 18.28 21.1 6 7 1010.9 0 39.7 39.7 76.0 201.1 220.4 765.1
08/05 04:00 22.5 91 18.17 21 6 6 1010.9 0 39.5 39.5 75.6 200.0 219.0 760.1
08/05 03:50 22.6 91 18.28 21.1 6 6 1010.9 0 39.7 39.7 76.0 201.1 220.4 765.1
08/05 03:40 22.6 91 18.28 21.1 9 9 1010.9 0 39.7 39.7 76.0 201.1 220.4 765.1
08/05 03:30 22.6 90 18.08 20.9 7 9 1010.9 0 39.3 39.3 75.1 198.6 217.3 754.2
08/05 03:20 22.7 90 18.18 21 7 9 1011 0 39.5 39.5 75.5 199.6 218.5 758.7
08/05 03:10 22.7 90 18.18 21 7 9 1011 0 39.5 39.5 75.5 199.6 218.5 758.7
08/05 03:00 22.6 90 18.08 20.9 7 9 1011 0 39.3 39.3 75.1 198.6 217.3 754.3
08/05 02:50 22.6 90 18.08 20.9 6 7 1011.1 0 39.3 39.3 75.1 198.6 217.3 754.3
08/05 02:40 22.6 90 18.08 20.9 7 7 1011.2 0 39.3 39.3 75.1 198.6 217.3 754.4
08/05 02:30 22.6 89 17.88 20.7 6 7 1011.2 0 38.8 39.0 74.2 196.1 214.2 743.6
08/05 02:20 22.6 89 17.88 20.7 6 6 1011.2 0 38.8 39.0 74.2 196.1 214.2 743.6
08/05 02:10 22.6 88 17.68 20.5 4 6 1011.3 0 38.4 38.6 73.2 193.6 211.1 732.9
08/05 02:00 22.7 88 17.78 20.6 6 7 1011.4 0 38.6 38.7 73.6 194.6 212.4 737.3
08/05 01:50 22.8 88 17.88 20.7 6 7 1011.4 0 38.8 38.9 74.0 195.6 213.6 741.7
08/05 01:40 23 87 17.88 20.7 4 6 1011.5 0 38.8 38.8 73.8 195.1 213.1 739.8
08/05 01:30 23.1 87 17.98 20.8 6 7 1011.5 0 39.0 38.9 74.2 196.1 214.3 744.2
08/05 01:20 23.1 86 17.78 20.6 6 6 1011.6 0 38.6 38.6 73.2 193.6 211.3 733.5
08/05 01:10 23.2 85 17.67 20.5 4 6 1011.6 0 38.3 38.3 72.6 192.0 209.3 726.7
08/05 01:00 23.6 84 17.86 20.7 6 7 1011.7 0 38.7 38.5 73.1 193.4 211.1 733.0
08/05 00:50 24.1 82 17.94 20.8 6 6 1011.8 0 38.8 38.4 73.0 193.1 210.9 732.4
08/05 00:40 24.2 80 17.6 20.5 6 7 1011.9 0 38.1 37.7 71.3 188.7 205.5 713.6
08/05 00:30 24.4 79 17.58 20.5 7 9 1011.8 0 38.0 37.6 71.1 187.9 204.7 710.7
08/05 00:20 24.4 79 17.58 20.5 7 9 1011.9 0 38.0 37.6 71.1 187.9 204.7 710.7
08/05 00:10 24.7 78 17.65 20.6 11 13 1011.9 0 38.1 37.6 71.1 188.0 204.9 711.5
08/05 00:00 24.9 77 17.63 20.6 13 17 1012 0 38.1 37.5 70.8 187.3 204.1 708.7
07/05 23:50 25.4 75 17.66 20.6 15 17 1012 0 38.1 37.3 70.5 186.5 203.2 705.6
07/05 23:40 25.5 75 17.76 20.7 17 20 1012.1 0 38.3 37.5 70.9 187.4 204.4 709.9
07/05 23:30 25.4 74 17.42 20.4 15 19 1012.2 0 37.6 36.9 69.4 183.6 199.6 693.4
07/05 23:20 25.5 73 17.28 20.3 17 17 1012.1 0 37.3 36.6 68.7 181.7 197.3 685.2
07/05 23:10 25.7 72 17.24 20.3 15 19 1012.2 0 37.2 36.4 68.4 180.7 196.2 681.5
07/05 23:00 25 76 17.49 20.5 9 11 1012.3 0 37.8 37.2 70.1 185.4 201.8 700.7
07/05 22:50 25.5 74 17.52 20.5 9 9 1012.4 0 37.8 37.0 69.8 184.6 200.9 697.7
07/05 22:40 25.6 74 17.62 20.6 11 11 1012.4 0 38.0 37.2 70.2 185.5 202.1 701.9
07/05 22:30 25.9 73 17.67 20.7 11 13 1012.4 0 38.1 37.1 70.1 185.4 202.0 701.7
07/05 22:20 26.1 72 17.63 20.7 11 13 1012.4 0 37.9 37.0 69.8 184.5 200.9 697.8
07/05 22:10 26 74 18.02 21 11 11 1012.5 0 38.8 37.7 71.6 189.4 206.9 718.8
07/05 22:00 26 80 19.48 22.3 7 9 1012.5 0 41.9 40.4 78.4 207.4 229.0 795.6
07/05 21:50 26.2 79 19.45 22.3 6 7 1012.4 0 41.8 40.3 78.0 206.5 227.9 791.9
07/05 21:40 26.4 78 19.42 22.3 6 7 1012.4 0 41.7 40.1 77.7 205.5 226.9 788.2
07/05 21:30 26.4 78 19.42 22.3 7 9 1012.3 0 41.7 40.1 77.7 205.5 226.8 788.1
07/05 21:20 26.8 76 19.34 22.2 9 9 1012.3 0 41.5 39.8 76.9 203.5 224.4 779.8
07/05 21:10 27 75 19.3 22.2 7 9 1012.3 0 41.4 39.6 76.5 202.4 223.2 775.6
07/05 21:00 27.1 75 19.41 22.3 7 11 1012.3 0 41.6 39.8 76.9 203.5 224.6 780.4
07/05 20:50 27.2 75 19.52 22.4 9 9 1012.2 0 41.8 39.9 77.3 204.6 225.9 785.1
07/05 20:40 27.2 75 19.52 22.4 7 9 1012.1 0 41.8 39.9 77.3 204.6 225.9 785.0
07/05 20:30 27.3 74 19.36 22.3 9 13 1012 0 41.5 39.6 76.5 202.3 223.2 775.5
07/05 20:20 27.3 74 19.36 22.3 13 15 1011.9 0 41.5 39.6 76.5 202.3 223.2 775.5
07/05 20:10 27.3 74 19.36 22.3 7 7 1011.7 0 41.5 39.6 76.4 202.3 223.1 775.4
07/05 20:00 27.3 74 19.36 22.3 7 13 1011.5 0 41.5 39.5 76.4 202.2 223.1 775.3

Last Refresh: 08-May-2026 12:08:51

Bureau of Meteorology